sensor_id;sensor_type;location;lat;lon;timestamp;temperature;humidity
45383;DHT22;42455;51.660;5.824;2023-02-01T00:01:13;7.1;93.5
45383;DHT22;42455;51.660;5.824;2023-02-01T00:06:19;7.1;93.5
45383;DHT22;42455;51.660;5.824;2023-02-01T00:11:25;7.0;94.0
45383;DHT22;42455;51.660;5.824;2023-02-01T00:16:32;7.0;94.0
45383;DHT22;42455;51.660;5.824;2023-02-01T00:21:38;7.0;94.0
45383;DHT22;42455;51.660;5.824;2023-02-01T00:26:45;7.1;94.5
45383;DHT22;42455;51.660;5.824;2023-02-01T00:31:50;7.1;94.5
45383;DHT22;42455;51.660;5.824;2023-02-01T00:36:55;7.2;94.5
45383;DHT22;42455;51.660;5.824;2023-02-01T00:42:01;7.2;94.5
45383;DHT22;42455;51.660;5.824;2023-02-01T00:47:07;7.3;94.5
45383;DHT22;42455;51.660;5.824;2023-02-01T00:52:13;7.3;94.5
45383;DHT22;42455;51.660;5.824;2023-02-01T00:57:19;7.4;94.0
45383;DHT22;42455;51.660;5.824;2023-02-01T01:02:26;7.4;94.0
45383;DHT22;42455;51.660;5.824;2023-02-01T01:07:32;7.4;94.0
45383;DHT22;42455;51.660;5.824;2023-02-01T01:12:38;7.5;94.0
45383;DHT22;42455;51.660;5.824;2023-02-01T01:17:44;7.5;94.0
45383;DHT22;42455;51.660;5.824;2023-02-01T01:22:50;7.6;94.0
45383;DHT22;42455;51.660;5.824;2023-02-01T01:27:57;7.6;94.0
45383;DHT22;42455;51.660;5.824;2023-02-01T01:33:03;7.6;93.5
45383;DHT22;42455;51.660;5.824;2023-02-01T01:38:09;7.7;93.5
45383;DHT22;42455;51.660;5.824;2023-02-01T01:43:17;7.7;93.5
45383;DHT22;42455;51.660;5.824;2023-02-01T01:48:25;7.7;93.0
45383;DHT22;42455;51.660;5.824;2023-02-01T01:53:38;7.7;93.0
45383;DHT22;42455;51.660;5.824;2023-02-01T01:58:34;7.7;93.0
45383;DHT22;42455;51.660;5.824;2023-02-01T02:03:42;7.7;93.0
45383;DHT22;42455;51.660;5.824;2023-02-01T02:08:46;7.7;93.0
45383;DHT22;42455;51.660;5.824;2023-02-01T02:13:54;7.7;93.0
45383;DHT22;42455;51.660;5.824;2023-02-01T02:20:13;7.7;92.5
45383;DHT22;42455;51.660;5.824;2023-02-01T02:27:03;7.7;92.5
45383;DHT22;42455;51.660;5.824;2023-02-01T02:33:51;7.7;92.5
45383;DHT22;42455;51.660;5.824;2023-02-01T02:38:23;7.6;92.5
45383;DHT22;42455;51.660;5.824;2023-02-01T02:43:14;7.6;92.5
45383;DHT22;42455;51.660;5.824;2023-02-01T02:47:00;7.5;92.0
45383;DHT22;42455;51.660;5.824;2023-02-01T02:51:23;7.4;92.0
45383;DHT22;42455;51.660;5.824;2023-02-01T02:54:47;7.4;92.0
45383;DHT22;42455;51.660;5.824;2023-02-01T02:59:47;7.3;92.0
45383;DHT22;42455;51.660;5.824;2023-02-01T03:04:53;7.2;92.0
45383;DHT22;42455;51.660;5.824;2023-02-01T03:09:59;7.2;92.0
45383;DHT22;42455;51.660;5.824;2023-02-01T03:15:12;7.2;92.5
45383;DHT22;42455;51.660;5.824;2023-02-01T03:20:14;7.1;92.5
45383;DHT22;42455;51.660;5.824;2023-02-01T03:25:21;7.2;92.5
45383;DHT22;42455;51.660;5.824;2023-02-01T03:30:28;7.2;93.0
45383;DHT22;42455;51.660;5.824;2023-02-01T03:35:32;7.2;93.0
45383;DHT22;42455;51.660;5.824;2023-02-01T03:40:37;7.2;93.0
45383;DHT22;42455;51.660;5.824;2023-02-01T03:45:48;7.3;93.0
45383;DHT22;42455;51.660;5.824;2023-02-01T03:50:52;7.3;93.0
45383;DHT22;42455;51.660;5.824;2023-02-01T03:55:55;7.2;93.0
45383;DHT22;42455;51.660;5.824;2023-02-01T04:01:01;7.2;93.0
45383;DHT22;42455;51.660;5.824;2023-02-01T04:06:07;7.2;93.0
45383;DHT22;42455;51.660;5.824;2023-02-01T04:11:13;7.2;93.0
45383;DHT22;42455;51.660;5.824;2023-02-01T04:16:19;7.2;93.0
45383;DHT22;42455;51.660;5.824;2023-02-01T04:21:26;7.2;93.0
45383;DHT22;42455;51.660;5.824;2023-02-01T04:26:31;7.2;93.0
45383;DHT22;42455;51.660;5.824;2023-02-01T04:31:37;7.2;93.0
45383;DHT22;42455;51.660;5.824;2023-02-01T04:36:42;7.1;93.0
45383;DHT22;42455;51.660;5.824;2023-02-01T04:41:49;7.1;93.0
45383;DHT22;42455;51.660;5.824;2023-02-01T04:46:55;7.1;93.0
45383;DHT22;42455;51.660;5.824;2023-02-01T04:52:01;7.1;93.0
45383;DHT22;42455;51.660;5.824;2023-02-01T04:57:07;7.1;93.0
45383;DHT22;42455;51.660;5.824;2023-02-01T05:02:13;7.1;93.5
45383;DHT22;42455;51.660;5.824;2023-02-01T05:07:19;7.1;93.5
45383;DHT22;42455;51.660;5.824;2023-02-01T05:12:26;7.1;93.5
45383;DHT22;42455;51.660;5.824;2023-02-01T05:17:32;7.1;93.5
45383;DHT22;42455;51.660;5.824;2023-02-01T05:22:38;7.1;94.0
45383;DHT22;42455;51.660;5.824;2023-02-01T05:27:44;7.2;94.0
45383;DHT22;42455;51.660;5.824;2023-02-01T05:32:51;7.3;94.0
45383;DHT22;42455;51.660;5.824;2023-02-01T05:37:57;7.3;94.0
45383;DHT22;42455;51.660;5.824;2023-02-01T05:43:03;7.4;94.0
45383;DHT22;42455;51.660;5.824;2023-02-01T05:48:09;7.5;94.0
45383;DHT22;42455;51.660;5.824;2023-02-01T05:53:16;7.5;94.0
45383;DHT22;42455;51.660;5.824;2023-02-01T05:58:22;7.5;94.0
45383;DHT22;42455;51.660;5.824;2023-02-01T06:03:29;7.6;93.5
45383;DHT22;42455;51.660;5.824;2023-02-01T06:08:34;7.6;93.5
45383;DHT22;42455;51.660;5.824;2023-02-01T06:13:40;7.6;93.5
45383;DHT22;42455;51.660;5.824;2023-02-01T06:18:46;7.6;94.0
45383;DHT22;42455;51.660;5.824;2023-02-01T06:23:52;7.7;93.5
45383;DHT22;42455;51.660;5.824;2023-02-01T06:28:58;7.7;93.5
45383;DHT22;42455;51.660;5.824;2023-02-01T06:34:04;7.7;93.5
45383;DHT22;42455;51.660;5.824;2023-02-01T06:39:09;7.8;94.0
45383;DHT22;42455;51.660;5.824;2023-02-01T06:44:16;7.8;94.0
45383;DHT22;42455;51.660;5.824;2023-02-01T06:49:22;7.8;94.0
45383;DHT22;42455;51.660;5.824;2023-02-01T06:54:28;7.9;94.0
45383;DHT22;42455;51.660;5.824;2023-02-01T06:59:34;7.9;94.0
45383;DHT22;42455;51.660;5.824;2023-02-01T07:04:40;8.0;94.0
45383;DHT22;42455;51.660;5.824;2023-02-01T07:09:47;8.1;94.0
45383;DHT22;42455;51.660;5.824;2023-02-01T07:14:53;8.2;94.0
45383;DHT22;42455;51.660;5.824;2023-02-01T07:19:59;8.3;94.0
45383;DHT22;42455;51.660;5.824;2023-02-01T07:25:05;8.3;93.5
45383;DHT22;42455;51.660;5.824;2023-02-01T07:30:12;8.4;93.5
45383;DHT22;42455;51.660;5.824;2023-02-01T07:35:18;8.4;93.5
45383;DHT22;42455;51.660;5.824;2023-02-01T07:40:24;8.4;93.5
45383;DHT22;42455;51.660;5.824;2023-02-01T07:45:30;8.4;93.0
45383;DHT22;42455;51.660;5.824;2023-02-01T07:50:36;8.5;93.0
45383;DHT22;42455;51.660;5.824;2023-02-01T07:55:42;8.5;93.0
45383;DHT22;42455;51.660;5.824;2023-02-01T08:00:49;8.5;93.0
45383;DHT22;42455;51.660;5.824;2023-02-01T08:05:55;8.4;93.0
45383;DHT22;42455;51.660;5.824;2023-02-01T08:11:03;8.5;93.0
45383;DHT22;42455;51.660;5.824;2023-02-01T08:16:09;8.5;93.0
45383;DHT22;42455;51.660;5.824;2023-02-01T08:21:19;8.5;92.5
45383;DHT22;42455;51.660;5.824;2023-02-01T08:26:20;8.5;92.5
45383;DHT22;42455;51.660;5.824;2023-02-01T08:31:26;8.5;92.5
45383;DHT22;42455;51.660;5.824;2023-02-01T08:36:31;8.5;93.0
45383;DHT22;42455;51.660;5.824;2023-02-01T08:41:37;8.5;93.0
45383;DHT22;42455;51.660;5.824;2023-02-01T08:46:42;8.6;93.0
45383;DHT22;42455;51.660;5.824;2023-02-01T08:51:49;8.6;93.0
45383;DHT22;42455;51.660;5.824;2023-02-01T08:56:55;8.7;93.0
45383;DHT22;42455;51.660;5.824;2023-02-01T09:02:01;8.7;93.0
45383;DHT22;42455;51.660;5.824;2023-02-01T09:07:07;8.8;93.0
45383;DHT22;42455;51.660;5.824;2023-02-01T09:12:14;8.8;93.0
45383;DHT22;42455;51.660;5.824;2023-02-01T09:17:20;8.9;93.0
45383;DHT22;42455;51.660;5.824;2023-02-01T09:22:26;8.9;93.0
45383;DHT22;42455;51.660;5.824;2023-02-01T09:27:32;9.0;93.0
45383;DHT22;42455;51.660;5.824;2023-02-01T09:32:38;9.1;93.0
45383;DHT22;42455;51.660;5.824;2023-02-01T09:37:45;9.2;93.0
45383;DHT22;42455;51.660;5.824;2023-02-01T09:43:16;9.2;92.5
45383;DHT22;42455;51.660;5.824;2023-02-01T09:48:02;9.3;92.5
45383;DHT22;42455;51.660;5.824;2023-02-01T09:53:10;9.4;92.5
45383;DHT22;42455;51.660;5.824;2023-02-01T09:58:18;9.5;92.5
45383;DHT22;42455;51.660;5.824;2023-02-01T10:03:16;9.6;92.5
45383;DHT22;42455;51.660;5.824;2023-02-01T10:09:01;9.6;92.5
45383;DHT22;42455;51.660;5.824;2023-02-01T10:14:55;9.7;92.0
45383;DHT22;42455;51.660;5.824;2023-02-01T10:20:06;9.8;92.0
45383;DHT22;42455;51.660;5.824;2023-02-01T10:25:05;9.9;92.0
45383;DHT22;42455;51.660;5.824;2023-02-01T10:28:49;10.0;92.0
45383;DHT22;42455;51.660;5.824;2023-02-01T10:33:59;10.1;92.0
45383;DHT22;42455;51.660;5.824;2023-02-01T10:38:59;10.2;91.5
45383;DHT22;42455;51.660;5.824;2023-02-01T10:44:09;10.2;91.0
45383;DHT22;42455;51.660;5.824;2023-02-01T10:49:18;10.2;91.0
45383;DHT22;42455;51.660;5.824;2023-02-01T10:54:20;10.2;91.0
45383;DHT22;42455;51.660;5.824;2023-02-01T10:59:28;10.2;90.5
45383;DHT22;42455;51.660;5.824;2023-02-01T11:04:33;10.2;90.5
45383;DHT22;42455;51.660;5.824;2023-02-01T11:09:40;10.2;90.5
45383;DHT22;42455;51.660;5.824;2023-02-01T11:14:41;10.2;90.0
45383;DHT22;42455;51.660;5.824;2023-02-01T11:19:57;10.2;90.0
45383;DHT22;42455;51.660;5.824;2023-02-01T11:24:54;10.3;90.0
45383;DHT22;42455;51.660;5.824;2023-02-01T11:30:03;10.3;90.0
45383;DHT22;42455;51.660;5.824;2023-02-01T11:35:14;10.3;90.0
45383;DHT22;42455;51.660;5.824;2023-02-01T11:40:27;10.3;90.0
45383;DHT22;42455;51.660;5.824;2023-02-01T11:45:25;10.3;89.5
45383;DHT22;42455;51.660;5.824;2023-02-01T11:50:30;10.3;89.5
45383;DHT22;42455;51.660;5.824;2023-02-01T11:56:17;10.3;89.5
45383;DHT22;42455;51.660;5.824;2023-02-01T12:01:59;10.3;89.5
45383;DHT22;42455;51.660;5.824;2023-02-01T12:07:51;10.3;89.5
45383;DHT22;42455;51.660;5.824;2023-02-01T12:13:01;10.3;89.5
45383;DHT22;42455;51.660;5.824;2023-02-01T12:19:23;10.3;89.5
45383;DHT22;42455;51.660;5.824;2023-02-01T12:24:46;10.3;89.5
45383;DHT22;42455;51.660;5.824;2023-02-01T12:31:20;10.3;89.0
45383;DHT22;42455;51.660;5.824;2023-02-01T12:36:36;10.3;89.0
45383;DHT22;42455;51.660;5.824;2023-02-01T12:42:08;10.3;89.5
45383;DHT22;42455;51.660;5.824;2023-02-01T12:45:47;10.3;89.5
45383;DHT22;42455;51.660;5.824;2023-02-01T12:49:17;10.3;89.5
45383;DHT22;42455;51.660;5.824;2023-02-01T12:52:21;10.3;89.5
45383;DHT22;42455;51.660;5.824;2023-02-01T12:56:53;10.3;89.5
45383;DHT22;42455;51.660;5.824;2023-02-01T13:01:54;10.3;89.5
45383;DHT22;42455;51.660;5.824;2023-02-01T13:07:07;10.4;89.0
45383;DHT22;42455;51.660;5.824;2023-02-01T13:12:10;10.4;89.0
45383;DHT22;42455;51.660;5.824;2023-02-01T13:17:15;10.5;89.5
45383;DHT22;42455;51.660;5.824;2023-02-01T13:22:21;10.6;89.5
45383;DHT22;42455;51.660;5.824;2023-02-01T13:27:21;10.7;89.5
45383;DHT22;42455;51.660;5.824;2023-02-01T13:33:21;10.8;89.0
45383;DHT22;42455;51.660;5.824;2023-02-01T13:39:36;10.9;88.5
45383;DHT22;42455;51.660;5.824;2023-02-01T13:43:11;10.9;88.5
45383;DHT22;42455;51.660;5.824;2023-02-01T13:47:48;11.0;88.5
45383;DHT22;42455;51.660;5.824;2023-02-01T13:52:55;11.0;88.5
45383;DHT22;42455;51.660;5.824;2023-02-01T13:58:22;11.0;88.0
45383;DHT22;42455;51.660;5.824;2023-02-01T14:03:12;11.1;88.0
45383;DHT22;42455;51.660;5.824;2023-02-01T14:08:35;11.1;88.0
45383;DHT22;42455;51.660;5.824;2023-02-01T14:13:35;11.1;87.5
45383;DHT22;42455;51.660;5.824;2023-02-01T14:19:21;11.1;87.5
45383;DHT22;42455;51.660;5.824;2023-02-01T14:23:28;11.1;87.5
45383;DHT22;42455;51.660;5.824;2023-02-01T14:28:35;11.1;87.5
45383;DHT22;42455;51.660;5.824;2023-02-01T14:33:43;11.1;87.5
45383;DHT22;42455;51.660;5.824;2023-02-01T14:38:48;11.0;87.0
45383;DHT22;42455;51.660;5.824;2023-02-01T14:44:26;11.0;87.0
45383;DHT22;42455;51.660;5.824;2023-02-01T14:48:59;11.0;87.5
45383;DHT22;42455;51.660;5.824;2023-02-01T14:54:08;11.0;87.5
45383;DHT22;42455;51.660;5.824;2023-02-01T14:59:16;10.9;87.5
45383;DHT22;42455;51.660;5.824;2023-02-01T15:04:18;10.9;87.5
45383;DHT22;42455;51.660;5.824;2023-02-01T15:09:27;10.9;87.5
45383;DHT22;42455;51.660;5.824;2023-02-01T15:14:32;10.9;87.5
45383;DHT22;42455;51.660;5.824;2023-02-01T15:19:36;10.9;87.5
45383;DHT22;42455;51.660;5.824;2023-02-01T15:24:41;10.9;87.5
45383;DHT22;42455;51.660;5.824;2023-02-01T15:29:47;10.8;87.5
45383;DHT22;42455;51.660;5.824;2023-02-01T15:34:53;10.8;87.5
45383;DHT22;42455;51.660;5.824;2023-02-01T15:40:04;10.8;87.5
45383;DHT22;42455;51.660;5.824;2023-02-01T15:45:16;10.8;87.5
45383;DHT22;42455;51.660;5.824;2023-02-01T15:50:13;10.7;88.0
45383;DHT22;42455;51.660;5.824;2023-02-01T15:55:24;10.7;88.0
45383;DHT22;42455;51.660;5.824;2023-02-01T16:00:26;10.7;88.0
45383;DHT22;42455;51.660;5.824;2023-02-01T16:05:40;10.7;88.0
45383;DHT22;42455;51.660;5.824;2023-02-01T16:10:39;10.7;88.0
45383;DHT22;42455;51.660;5.824;2023-02-01T16:15:43;10.7;88.0
45383;DHT22;42455;51.660;5.824;2023-02-01T16:20:48;10.7;88.0
45383;DHT22;42455;51.660;5.824;2023-02-01T16:25:53;10.7;88.0
45383;DHT22;42455;51.660;5.824;2023-02-01T16:31:00;10.7;88.0
45383;DHT22;42455;51.660;5.824;2023-02-01T16:36:08;10.7;88.5
45383;DHT22;42455;51.660;5.824;2023-02-01T16:41:14;10.7;88.5
45383;DHT22;42455;51.660;5.824;2023-02-01T16:46:20;10.7;88.5
45383;DHT22;42455;51.660;5.824;2023-02-01T16:51:26;10.7;88.5
45383;DHT22;42455;51.660;5.824;2023-02-01T16:56:33;10.7;88.5
45383;DHT22;42455;51.660;5.824;2023-02-01T17:01:37;10.7;88.5
45383;DHT22;42455;51.660;5.824;2023-02-01T17:06:43;10.7;88.5
45383;DHT22;42455;51.660;5.824;2023-02-01T17:11:49;10.7;88.5
45383;DHT22;42455;51.660;5.824;2023-02-01T17:16:55;10.8;88.0
45383;DHT22;42455;51.660;5.824;2023-02-01T17:22:02;10.8;88.5
45383;DHT22;42455;51.660;5.824;2023-02-01T17:27:08;10.8;88.5
45383;DHT22;42455;51.660;5.824;2023-02-01T17:32:19;10.8;88.0
45383;DHT22;42455;51.660;5.824;2023-02-01T17:37:32;10.8;88.0
45383;DHT22;42455;51.660;5.824;2023-02-01T17:42:28;10.8;88.0
45383;DHT22;42455;51.660;5.824;2023-02-01T17:47:33;10.8;88.0
45383;DHT22;42455;51.660;5.824;2023-02-01T17:52:39;10.8;88.5
45383;DHT22;42455;51.660;5.824;2023-02-01T17:57:45;10.8;88.5
45383;DHT22;42455;51.660;5.824;2023-02-01T18:02:51;10.7;88.5
45383;DHT22;42455;51.660;5.824;2023-02-01T18:07:58;10.7;88.5
45383;DHT22;42455;51.660;5.824;2023-02-01T18:13:03;10.8;88.5
45383;DHT22;42455;51.660;5.824;2023-02-01T18:18:09;10.8;88.5
45383;DHT22;42455;51.660;5.824;2023-02-01T18:23:22;10.8;88.5
45383;DHT22;42455;51.660;5.824;2023-02-01T18:28:20;10.8;88.5
45383;DHT22;42455;51.660;5.824;2023-02-01T18:33:27;10.8;88.5
45383;DHT22;42455;51.660;5.824;2023-02-01T18:38:33;10.8;88.5
45383;DHT22;42455;51.660;5.824;2023-02-01T18:43:40;10.8;88.5
45383;DHT22;42455;51.660;5.824;2023-02-01T18:48:45;10.8;88.5
45383;DHT22;42455;51.660;5.824;2023-02-01T18:53:51;10.8;88.5
45383;DHT22;42455;51.660;5.824;2023-02-01T18:58:58;10.8;88.5
45383;DHT22;42455;51.660;5.824;2023-02-01T19:04:04;10.8;88.5
45383;DHT22;42455;51.660;5.824;2023-02-01T19:09:10;10.7;88.5
45383;DHT22;42455;51.660;5.824;2023-02-01T19:14:16;10.8;89.0
45383;DHT22;42455;51.660;5.824;2023-02-01T19:19:22;10.8;89.0
45383;DHT22;42455;51.660;5.824;2023-02-01T19:24:29;10.8;89.0
45383;DHT22;42455;51.660;5.824;2023-02-01T19:29:35;10.8;89.0
45383;DHT22;42455;51.660;5.824;2023-02-01T19:34:41;10.8;89.0
45383;DHT22;42455;51.660;5.824;2023-02-01T19:39:48;10.8;89.0
45383;DHT22;42455;51.660;5.824;2023-02-01T19:44:54;10.8;89.0
45383;DHT22;42455;51.660;5.824;2023-02-01T19:50:01;10.8;89.0
45383;DHT22;42455;51.660;5.824;2023-02-01T19:55:06;10.8;89.0
45383;DHT22;42455;51.660;5.824;2023-02-01T20:00:13;10.8;89.0
45383;DHT22;42455;51.660;5.824;2023-02-01T20:05:18;10.9;89.0
45383;DHT22;42455;51.660;5.824;2023-02-01T20:10:25;10.8;89.0
45383;DHT22;42455;51.660;5.824;2023-02-01T20:15:30;10.9;89.5
45383;DHT22;42455;51.660;5.824;2023-02-01T20:20:37;10.9;89.5
45383;DHT22;42455;51.660;5.824;2023-02-01T20:25:42;10.9;89.5
45383;DHT22;42455;51.660;5.824;2023-02-01T20:30:47;10.9;89.5
45383;DHT22;42455;51.660;5.824;2023-02-01T20:35:54;10.9;89.5
45383;DHT22;42455;51.660;5.824;2023-02-01T20:41:01;10.9;89.5
45383;DHT22;42455;51.660;5.824;2023-02-01T20:46:06;10.9;89.5
45383;DHT22;42455;51.660;5.824;2023-02-01T20:51:14;10.9;89.5
45383;DHT22;42455;51.660;5.824;2023-02-01T20:56:19;11.0;89.5
45383;DHT22;42455;51.660;5.824;2023-02-01T21:01:25;11.0;89.5
45383;DHT22;42455;51.660;5.824;2023-02-01T21:06:31;11.0;89.5
45383;DHT22;42455;51.660;5.824;2023-02-01T21:11:37;11.0;89.5
45383;DHT22;42455;51.660;5.824;2023-02-01T21:16:43;11.0;89.5
45383;DHT22;42455;51.660;5.824;2023-02-01T21:21:50;11.0;89.5
45383;DHT22;42455;51.660;5.824;2023-02-01T21:26:57;11.0;89.5
45383;DHT22;42455;51.660;5.824;2023-02-01T21:32:03;11.1;90.0
45383;DHT22;42455;51.660;5.824;2023-02-01T21:37:08;11.1;90.0
45383;DHT22;42455;51.660;5.824;2023-02-01T21:42:14;11.1;90.0
45383;DHT22;42455;51.660;5.824;2023-02-01T21:47:21;11.1;90.0
45383;DHT22;42455;51.660;5.824;2023-02-01T21:52:27;11.1;90.0
45383;DHT22;42455;51.660;5.824;2023-02-01T21:57:33;11.1;90.0
45383;DHT22;42455;51.660;5.824;2023-02-01T22:02:39;11.0;90.0
45383;DHT22;42455;51.660;5.824;2023-02-01T22:07:45;11.0;90.0
45383;DHT22;42455;51.660;5.824;2023-02-01T22:12:52;11.0;90.0
45383;DHT22;42455;51.660;5.824;2023-02-01T22:17:57;11.0;90.0
45383;DHT22;42455;51.660;5.824;2023-02-01T22:23:03;11.0;90.0
45383;DHT22;42455;51.660;5.824;2023-02-01T22:28:09;10.9;90.0
45383;DHT22;42455;51.660;5.824;2023-02-01T22:33:15;10.9;90.0
45383;DHT22;42455;51.660;5.824;2023-02-01T22:38:21;10.9;90.0
45383;DHT22;42455;51.660;5.824;2023-02-01T22:43:27;10.8;90.0
45383;DHT22;42455;51.660;5.824;2023-02-01T22:48:36;10.8;90.0
45383;DHT22;42455;51.660;5.824;2023-02-01T22:53:39;10.8;90.5
45383;DHT22;42455;51.660;5.824;2023-02-01T22:58:46;10.8;90.5
45383;DHT22;42455;51.660;5.824;2023-02-01T23:03:55;10.8;90.5
45383;DHT22;42455;51.660;5.824;2023-02-01T23:09:02;10.8;90.5
45383;DHT22;42455;51.660;5.824;2023-02-01T23:14:04;10.7;90.5
45383;DHT22;42455;51.660;5.824;2023-02-01T23:19:10;10.7;91.0
45383;DHT22;42455;51.660;5.824;2023-02-01T23:24:17;10.6;91.0
45383;DHT22;42455;51.660;5.824;2023-02-01T23:29:23;10.6;91.0
45383;DHT22;42455;51.660;5.824;2023-02-01T23:34:29;10.5;91.0
45383;DHT22;42455;51.660;5.824;2023-02-01T23:39:35;10.5;91.5
45383;DHT22;42455;51.660;5.824;2023-02-01T23:44:42;10.5;91.5
45383;DHT22;42455;51.660;5.824;2023-02-01T23:49:48;10.5;91.5
45383;DHT22;42455;51.660;5.824;2023-02-01T23:54:54;10.5;92.0
